Cottonwood, Idaho
Current Conditions -  °F | °C
As of 5:55 PM on Monday 20 Oct 2014 (Local Time) from KGIC Reporting Station
Clear Clear  
Wind Chill: 67°   Ceiling: Unl
Heat Index: 67°   Visibility: 10mi
Dew Point: 29°   Wind: 3mph
Humidity: 24%   Direction: 310°NW
Pressure: 29.77"   Gusts: NA
Location:  46.05°N, 116.35°W
Report Text: KGIC 210055Z AUTO 31003KT 10SM CLR 20/M02 A2977 RMK AO1 T01951019
Loading
Personal Weather Stations






























Interactive Weather Map
Tropical Storm Tracking
New forecast layout! Learn more

10-Day Weather Forecast

Advertisements
Track Severe Weather on mobile